Karl Stefan Memorial Airport
KOFK : now visible

Airfield :











YOU CAN JOIN US ON...

 
LOGIN :

Register | Disclaimer

   EN    FR    IT 

 









Legend :    VFR   Marginal VFR   IFR   Intensive IFR   Very Intensive IFR
Visi :
Ceiling :
>= 8 km
>= 3000ft
5 to 8 km
1000 to 3000 ft
1500m to 5 km
500 to 1000 ft
800 to 1500m
200 to 500 ft
< 800m
< 200 ft
Symbols :   Thunderstorms  Fog  Heavy snow  Heavy precipitations  Wind > 20 kt






- Airport Elevation : 1573 ft


KOFK - Karl Stefan Memorial

CURRENT METAR :
  • 221356Z AUTO 00000KT 10SM SCT070 10/01 A3043 RMK AO2 SLP308 T01000011

EXPIRED METARs :
  • 221256Z AUTO 31003KT 10SM CLR 07/01 A3040 RMK AO2 SLP301 T00670011
  • 221156Z AUTO 00000KT 10SM CLR 03/00 A3038 RMK AO2 SLP293 T00330000 10039 20006 53023

TAF KOFK
Valid from the 22 at 12:00 until the 23 at 12:00 UTC


221120Z 2212/2312 24005KT P6SM SKC
FM221600 33010KT P6SM FEW050 SCT250
FM230000 10007KT P6SM BKN200
KZMP FIR / North America



MET'MAP, your aeronautical weather chart ! - Copyright ORBIFLY December 2007 - Disclaimer

ORBIFLY MET'MAP TEAM :

Programming & Development : Alexandra Zaïnal
Original concept : Baudouin d'Aumeries
Technical & hardware support : Manuel Goepfert
Assistance : Marc-Olivier Méhu

Contact : metmap@orbifly.com




SOURCES & CREDITS :

   NOAA       Earth
Advisory